Time;durP1;ratioP1;P1;durP2;ratioP2;P2;SDS_P1;SDS_P2;PMS_P1;PMS_P2;Temp;Humidity;BMP_temperature;BMP_pressure;BME280_temperature;BME280_humidity;BME280_pressure;Samples;Min_cycle;Max_cycle;Signal;HPM_P1;HPM_P2
2024/03/21 00:00:30;;;;;;;4.27;3.30;;;17.50;79.90;;;;;;5070404;28;20750;-72
2024/03/21 00:02:56;;;;;;;5.63;3.43;;;17.50;79.80;;;;;;5070173;28;20043;-71
2024/03/21 00:05:23;;;;;;;5.47;3.83;;;17.50;79.80;;;;;;5085390;28;20311;-73
2024/03/21 00:07:49;;;;;;;8.30;3.33;;;17.40;79.80;;;;;;5070503;28;20083;-73
2024/03/21 00:10:22;;;;;;;7.65;3.20;;;17.40;79.80;;;;;;5068343;28;20124;-73
2024/03/21 00:12:49;;;;;;;5.57;3.50;;;17.40;79.70;;;;;;5068692;28;20060;-73
2024/03/21 00:15:15;;;;;;;4.72;3.47;;;17.40;79.80;;;;;;5069314;28;20039;-73
2024/03/21 00:17:42;;;;;;;5.07;3.15;;;17.40;79.80;;;;;;5070140;28;20033;-72
2024/03/21 00:20:12;;;;;;;5.70;3.35;;;17.40;79.70;;;;;;5069656;28;20107;-73
2024/03/21 00:22:38;;;;;;;4.72;3.38;;;17.40;79.70;;;;;;5067846;28;20656;-72
2024/03/21 00:25:05;;;;;;;6.65;3.75;;;17.40;79.70;;;;;;5064617;28;20036;-72
2024/03/21 00:27:33;;;;;;;6.00;3.72;;;17.40;79.70;;;;;;5068497;28;20047;-72
2024/03/21 00:29:59;;;;;;;5.47;3.25;;;17.40;79.80;;;;;;5069239;28;20039;-72
2024/03/21 00:32:26;;;;;;;5.13;3.40;;;17.40;79.70;;;;;;5067307;28;20032;-73
2024/03/21 00:34:52;;;;;;;6.03;3.60;;;17.40;79.60;;;;;;5068855;28;20098;-72
2024/03/21 00:37:18;;;;;;;4.93;3.40;;;17.30;79.70;;;;;;5068580;28;20064;-72
2024/03/21 00:39:45;;;;;;;5.23;3.80;;;17.30;79.70;;;;;;5069536;28;20256;-72
2024/03/21 00:42:11;;;;;;;4.63;3.38;;;17.30;79.60;;;;;;5069320;28;20606;-72
2024/03/21 00:44:37;;;;;;;6.50;3.40;;;17.30;79.50;;;;;;5068337;28;20458;-72
2024/03/21 00:47:03;;;;;;;4.60;3.47;;;17.30;79.60;;;;;;5068382;28;20047;-72
2024/03/21 00:49:29;;;;;;;4.85;3.38;;;17.30;79.50;;;;;;5069529;28;20017;-72
2024/03/21 00:51:55;;;;;;;5.33;3.17;;;17.30;79.50;;;;;;5069588;28;20025;-72
2024/03/21 00:54:22;;;;;;;5.97;3.50;;;17.30;79.50;;;;;;5068739;28;20465;-72
2024/03/21 00:56:48;;;;;;;4.10;2.92;;;17.30;79.50;;;;;;5068437;28;20065;-71
2024/03/21 00:59:14;;;;;;;4.97;3.30;;;17.30;79.40;;;;;;5070053;28;20044;-72
2024/03/21 01:01:40;;;;;;;4.37;2.90;;;17.30;79.50;;;;;;5070054;28;20037;-72
2024/03/21 01:04:06;;;;;;;4.22;3.25;;;17.20;79.40;;;;;;5068218;28;20020;-72
2024/03/21 01:06:33;;;;;;;5.65;2.78;;;17.20;79.50;;;;;;5071491;28;20045;-72
2024/03/21 01:08:58;;;;;;;5.78;3.50;;;17.20;79.50;;;;;;5073636;28;20024;-72
2024/03/21 01:11:24;;;;;;;4.33;2.70;;;17.20;79.40;;;;;;5073318;28;20081;-72
2024/03/21 01:13:50;;;;;;;5.80;3.40;;;17.20;79.50;;;;;;5073159;28;20082;-72
2024/03/21 01:16:16;;;;;;;3.73;2.93;;;17.20;79.40;;;;;;5071151;28;20033;-72
2024/03/21 01:18:41;;;;;;;5.47;2.97;;;17.20;79.40;;;;;;5069638;28;20475;-72
2024/03/21 01:21:08;;;;;;;5.63;3.10;;;17.20;79.50;;;;;;5071696;28;20029;-73
2024/03/21 01:23:34;;;;;;;5.45;3.25;;;17.20;79.40;;;;;;5072432;28;20028;-72
2024/03/21 01:26:01;;;;;;;6.10;3.35;;;17.20;79.40;;;;;;5071758;28;20042;-72
2024/03/21 01:28:27;;;;;;;4.97;2.88;;;17.20;79.40;;;;;;5072978;28;20032;-72
2024/03/21 01:30:54;;;;;;;4.22;2.78;;;17.20;79.30;;;;;;5072296;28;20091;-72
2024/03/21 01:33:20;;;;;;;7.95;3.75;;;17.20;79.30;;;;;;5072677;28;20025;-72
2024/03/21 01:35:45;;;;;;;5.18;3.50;;;17.10;79.20;;;;;;5070991;28;20040;-72
2024/03/21 01:38:13;;;;;;;4.67;3.20;;;17.10;79.20;;;;;;5072030;28;20032;-72
2024/03/21 01:40:39;;;;;;;5.85;3.72;;;17.20;79.20;;;;;;5072662;28;20029;-72
2024/03/21 01:43:24;;;;;;;4.97;2.92;;;17.20;79.10;;;;;;5071536;28;20108;-72
2024/03/21 01:46:16;;;;;;;4.43;3.28;;;17.10;79.10;;;;;;5072306;28;20024;-72
2024/03/21 01:48:50;;;;;;;4.60;2.88;;;17.10;79.10;;;;;;5058535;28;20032;-71
2024/03/21 01:51:18;;;;;;;4.57;3.58;;;17.10;79.10;;;;;;5071922;28;20032;-72
2024/03/21 01:53:49;;;;;;;5.28;3.40;;;17.10;79.10;;;;;;5071287;28;20385;-72
2024/03/21 01:56:15;;;;;;;4.95;3.40;;;17.10;79.10;;;;;;5070951;28;20028;-72
2024/03/21 01:58:41;;;;;;;4.40;3.30;;;17.10;79.10;;;;;;5071759;28;20564;-71
2024/03/21 02:01:29;;;;;;;4.78;3.22;;;17.10;79.00;;;;;;5071896;28;20779;-72
2024/03/21 02:04:00;;;;;;;5.10;3.55;;;17.10;79.00;;;;;;5067610;28;20028;-72
2024/03/21 02:06:33;;;;;;;7.57;3.67;;;17.10;79.00;;;;;;5071191;28;20394;-72
2024/03/21 02:09:22;;;;;;;5.30;3.33;;;17.10;79.00;;;;;;5072335;28;20052;-72
2024/03/21 02:11:49;;;;;;;6.00;3.83;;;17.10;79.00;;;;;;5071928;28;20058;-72
2024/03/21 02:14:15;;;;;;;7.87;4.20;;;17.10;78.90;;;;;;5071478;28;20024;-72
2024/03/21 02:16:41;;;;;;;6.43;4.40;;;17.10;78.90;;;;;;5071154;28;20020;-72
2024/03/21 02:19:07;;;;;;;5.93;4.10;;;17.10;78.90;;;;;;5072114;28;20531;-72
2024/03/21 02:24:16;;;;;;;5.82;4.20;;;17.00;78.80;;;;;;5071771;28;20396;-71
2024/03/21 02:26:42;;;;;;;7.57;4.10;;;17.00;78.80;;;;;;5085824;28;20036;-72
2024/03/21 02:29:08;;;;;;;6.93;3.43;;;17.00;78.80;;;;;;5068670;28;20039;-72
2024/03/21 02:31:33;;;;;;;7.30;3.60;;;17.00;78.80;;;;;;5070226;28;20240;-72
2024/03/21 02:33:59;;;;;;;7.27;4.03;;;17.00;78.80;;;;;;5071631;28;20025;-72
2024/03/21 02:36:25;;;;;;;6.03;3.73;;;17.00;78.80;;;;;;5071568;28;20023;-72
2024/03/21 02:38:50;;;;;;;5.20;3.63;;;17.00;78.80;;;;;;5071702;28;20037;-72
2024/03/21 02:41:16;;;;;;;7.27;3.97;;;17.00;78.80;;;;;;5071673;28;20365;-71
2024/03/21 02:43:42;;;;;;;6.13;4.03;;;17.00;78.80;;;;;;5070019;28;20025;-73
2024/03/21 02:46:07;;;;;;;5.90;3.83;;;17.00;78.80;;;;;;5071609;28;20093;-72
2024/03/21 02:48:36;;;;;;;6.47;3.83;;;17.00;78.80;;;;;;5069708;28;20040;-72
2024/03/21 02:51:01;;;;;;;8.80;3.83;;;17.00;78.80;;;;;;5069994;28;20089;-72
2024/03/21 02:53:27;;;;;;;6.00;4.27;;;16.90;78.80;;;;;;5071575;28;20531;-72
2024/03/21 02:55:53;;;;;;;6.27;4.20;;;16.90;78.70;;;;;;5071364;28;20032;-72
2024/03/21 02:58:18;;;;;;;7.50;4.53;;;16.90;78.60;;;;;;5070200;28;20028;-72
2024/03/21 03:00:44;;;;;;;6.17;4.00;;;16.90;78.70;;;;;;5069543;28;20028;-72
2024/03/21 03:03:10;;;;;;;5.97;3.72;;;16.90;78.60;;;;;;5071606;28;20373;-72
2024/03/21 03:05:40;;;;;;;7.10;4.03;;;16.90;78.60;;;;;;5069150;28;20055;-72
2024/03/21 03:08:07;;;;;;;8.98;4.70;;;16.90;78.70;;;;;;5069333;28;20077;-72
2024/03/21 03:10:33;;;;;;;8.68;4.07;;;16.90;78.60;;;;;;5069223;28;20127;-73
2024/03/21 03:12:58;;;;;;;6.33;4.20;;;16.90;78.60;;;;;;5070866;28;20124;-72
2024/03/21 03:15:24;;;;;;;7.13;4.10;;;16.90;78.50;;;;;;5071061;28;20373;-72
2024/03/21 03:17:50;;;;;;;6.27;4.70;;;16.90;78.50;;;;;;5070461;28;20055;-72
2024/03/21 03:20:15;;;;;;;5.37;3.73;;;16.90;78.50;;;;;;5068811;28;20024;-72
2024/03/21 03:22:41;;;;;;;6.00;3.87;;;16.90;78.50;;;;;;5069477;28;20024;-72
2024/03/21 03:25:07;;;;;;;5.80;3.93;;;16.90;78.50;;;;;;5070300;28;20040;-72
2024/03/21 03:27:32;;;;;;;9.20;4.43;;;16.80;78.60;;;;;;5070338;28;20447;-72
2024/03/21 03:29:58;;;;;;;5.37;3.63;;;16.80;78.60;;;;;;5068734;28;20071;-72
2024/03/21 03:32:24;;;;;;;7.78;3.80;;;16.80;78.50;;;;;;5068927;28;20109;-73
2024/03/21 03:37:34;;;;;;;5.80;3.42;;;16.80;78.60;;;;;;5070197;28;20039;-72
2024/03/21 03:40:00;;;;;;;6.67;3.37;;;16.80;78.40;;;;;;5070184;28;20025;-72
2024/03/21 03:42:26;;;;;;;6.30;4.07;;;16.80;78.40;;;;;;5069088;28;20028;-72
2024/03/21 03:44:51;;;;;;;5.47;4.03;;;16.80;78.20;;;;;;5069825;28;20017;-72
2024/03/21 03:47:17;;;;;;;4.73;3.60;;;16.80;78.20;;;;;;5069945;28;20038;-72
2024/03/21 03:49:43;;;;;;;5.00;3.80;;;16.80;78.30;;;;;;5069212;28;20482;-72
2024/03/21 03:52:08;;;;;;;5.57;3.23;;;16.70;78.20;;;;;;5085685;28;20028;-72
2024/03/21 03:54:34;;;;;;;5.03;3.50;;;16.80;78.20;;;;;;5070137;28;20037;-72
2024/03/21 03:57:00;;;;;;;4.03;3.20;;;16.80;78.10;;;;;;5069790;28;20680;-72
2024/03/21 03:59:25;;;;;;;4.80;3.23;;;16.70;78.00;;;;;;5070151;28;20044;-72
2024/03/21 04:01:52;;;;;;;5.50;3.07;;;16.70;78.10;;;;;;5070507;28;20023;-72
2024/03/21 04:04:18;;;;;;;7.47;3.63;;;16.70;78.00;;;;;;5070191;28;20021;-74
2024/03/21 04:06:43;;;;;;;5.37;3.30;;;16.70;78.00;;;;;;5068429;28;20542;-72
2024/03/21 04:09:09;;;;;;;4.97;3.70;;;16.70;78.00;;;;;;5068721;28;20028;-72
2024/03/21 04:11:35;;;;;;;3.90;2.80;;;16.70;78.10;;;;;;5070210;28;20100;-72
2024/03/21 04:14:00;;;;;;;6.60;3.53;;;16.70;78.00;;;;;;5068715;28;20028;-72
2024/03/21 04:16:26;;;;;;;5.90;3.50;;;16.70;77.90;;;;;;5069049;28;20133;-72
2024/03/21 04:18:52;;;;;;;4.70;3.20;;;16.70;78.00;;;;;;5085808;28;20031;-72
2024/03/21 04:21:18;;;;;;;4.63;3.40;;;16.70;78.00;;;;;;5069812;28;20035;-72
2024/03/21 04:23:44;;;;;;;4.93;3.40;;;16.70;78.00;;;;;;5068682;28;20568;-72
2024/03/21 04:26:10;;;;;;;6.00;3.60;;;16.70;77.90;;;;;;5069439;28;20108;-72
2024/03/21 04:28:36;;;;;;;5.60;3.30;;;16.60;77.80;;;;;;5070218;28;20468;-72
2024/03/21 04:31:01;;;;;;;4.13;2.95;;;16.60;77.80;;;;;;5069203;28;20035;-72
2024/03/21 04:33:27;;;;;;;4.07;3.00;;;16.60;77.70;;;;;;5070227;28;20037;-72
2024/03/21 04:35:53;;;;;;;3.73;2.90;;;16.60;77.70;;;;;;5067908;28;20020;-72
2024/03/21 04:38:19;;;;;;;3.90;2.77;;;16.60;77.70;;;;;;5067749;28;20070;-72
2024/03/21 04:40:45;;;;;;;7.50;3.50;;;16.60;77.50;;;;;;5071184;28;20040;-72
2024/03/21 04:43:11;;;;;;;4.20;3.03;;;16.60;77.50;;;;;;5064808;28;20028;-72
2024/03/21 04:45:39;;;;;;;3.33;2.97;;;16.60;77.70;;;;;;5072247;28;20529;-72
2024/03/21 04:48:05;;;;;;;4.45;3.00;;;16.60;77.60;;;;;;5073209;28;20068;-72
2024/03/21 04:50:31;;;;;;;6.95;3.05;;;16.60;77.50;;;;;;5071632;28;20197;-72
2024/03/21 04:52:56;;;;;;;4.93;3.20;;;16.60;77.60;;;;;;5072046;28;20056;-73
2024/03/21 04:55:22;;;;;;;4.50;2.73;;;16.50;77.50;;;;;;5072886;28;20028;-72
2024/03/21 04:57:48;;;;;;;4.43;2.70;;;16.50;77.50;;;;;;5074020;28;20482;-72
2024/03/21 05:00:13;;;;;;;3.23;2.53;;;16.50;77.50;;;;;;5073323;28;20020;-73
2024/03/21 05:02:40;;;;;;;6.80;3.40;;;16.50;77.50;;;;;;5072670;28;20020;-72
2024/03/21 05:05:06;;;;;;;5.45;2.88;;;16.50;77.40;;;;;;5072940;28;20060;-73
2024/03/21 05:07:32;;;;;;;3.10;2.78;;;16.50;77.40;;;;;;5072532;28;20153;-73
2024/03/21 05:09:58;;;;;;;5.70;2.60;;;16.50;77.40;;;;;;5071921;28;20036;-72
2024/03/21 05:12:24;;;;;;;4.47;2.77;;;16.50;77.30;;;;;;5072932;28;20028;-72
2024/03/21 05:14:51;;;;;;;4.28;2.85;;;16.50;77.30;;;;;;5072889;28;20303;-72
2024/03/21 05:17:17;;;;;;;3.17;2.60;;;16.50;77.20;;;;;;5072803;28;20039;-72
2024/03/21 05:19:47;;;;;;;2.75;2.15;;;16.50;77.30;;;;;;5072837;28;20025;-72
2024/03/21 05:22:14;;;;;;;5.18;2.78;;;16.50;77.20;;;;;;5071923;28;20032;-72
2024/03/21 05:24:40;;;;;;;3.03;2.38;;;16.40;77.10;;;;;;5072479;28;20023;-72
2024/03/21 05:27:06;;;;;;;4.17;2.73;;;16.40;77.10;;;;;;5071284;28;20060;-72
2024/03/21 05:29:32;;;;;;;5.45;2.47;;;16.40;77.10;;;;;;5072834;28;20466;-72
2024/03/21 05:31:58;;;;;;;2.75;2.17;;;16.40;77.20;;;;;;5072707;28;20374;-72
2024/03/21 05:34:24;;;;;;;4.00;2.53;;;16.40;77.10;;;;;;5071646;28;20078;-73
2024/03/21 05:36:49;;;;;;;3.63;2.13;;;16.40;77.00;;;;;;5071606;28;20111;-72
2024/03/21 05:39:15;;;;;;;2.33;2.00;;;16.40;77.00;;;;;;5072059;28;20367;-72
2024/03/21 05:41:41;;;;;;;4.30;2.33;;;16.40;77.00;;;;;;5072473;28;20020;-72
2024/03/21 05:44:07;;;;;;;3.83;2.33;;;16.40;77.00;;;;;;5072732;28;20019;-72
2024/03/21 05:46:32;;;;;;;2.37;1.70;;;16.40;76.90;;;;;;5072498;28;20192;-72
2024/03/21 05:48:58;;;;;;;3.30;2.07;;;16.40;76.90;;;;;;5071033;28;20033;-72
2024/03/21 05:51:24;;;;;;;2.50;1.73;;;16.40;76.90;;;;;;5071467;28;20459;-72
2024/03/21 05:53:50;;;;;;;3.65;2.20;;;16.40;76.70;;;;;;5072263;28;20025;-72
2024/03/21 05:56:16;;;;;;;3.63;2.00;;;16.40;76.80;;;;;;5071101;28;20377;-72
2024/03/21 05:58:43;;;;;;;3.50;1.77;;;16.30;76.60;;;;;;5072650;28;20030;-73
2024/03/21 06:03:42;;;;;;;4.53;2.17;;;16.40;76.60;;;;;;5066110;28;19915;-72
2024/03/21 06:06:08;;;;;;;2.60;1.80;;;16.30;76.60;;;;;;5071458;28;20101;-72
2024/03/21 06:08:34;;;;;;;3.37;1.70;;;16.30;76.60;;;;;;5072688;28;20037;-72
2024/03/21 06:11:00;;;;;;;2.60;1.38;;;16.30;76.60;;;;;;5072530;28;20062;-72
2024/03/21 06:13:26;;;;;;;5.97;2.13;;;16.30;76.60;;;;;;5070927;28;20529;-73
2024/03/21 06:15:52;;;;;;;2.85;1.75;;;16.30;76.60;;;;;;5087086;28;20450;-72
2024/03/21 06:18:18;;;;;;;2.13;1.73;;;16.30;76.60;;;;;;5071055;28;20039;-72
2024/03/21 06:20:45;;;;;;;3.37;1.70;;;16.30;76.50;;;;;;5072356;28;20029;-72
2024/03/21 06:23:11;;;;;;;2.55;1.67;;;16.30;76.50;;;;;;5071827;28;20027;-72
2024/03/21 06:25:37;;;;;;;3.35;1.83;;;16.30;76.50;;;;;;5072057;28;20035;-72
2024/03/21 06:28:06;;;;;;;4.60;1.55;;;16.30;76.40;;;;;;5071419;28;20078;-72
2024/03/21 06:30:33;;;;;;;2.97;1.60;;;16.30;76.50;;;;;;5065990;28;20029;-72
2024/03/21 06:32:58;;;;;;;2.63;1.30;;;16.30;76.40;;;;;;5071590;28;20508;-72
2024/03/21 06:35:26;;;;;;;3.03;1.73;;;16.30;76.40;;;;;;5071751;28;20060;-72
2024/03/21 06:37:53;;;;;;;1.63;1.40;;;16.30;76.30;;;;;;5071045;28;20029;-72
2024/03/21 06:40:19;;;;;;;2.92;1.92;;;16.30;76.30;;;;;;5069974;28;20166;-73
2024/03/21 06:42:45;;;;;;;2.88;1.67;;;16.30;76.30;;;;;;5071577;28;20033;-72
2024/03/21 06:45:11;;;;;;;3.07;1.50;;;16.20;76.30;;;;;;5071670;28;20397;-72
2024/03/21 06:47:42;;;;;;;1.67;1.30;;;16.20;76.20;;;;;;5070228;28;20380;-72
2024/03/21 06:50:11;;;;;;;2.25;1.38;;;16.20;76.10;;;;;;5086756;28;20021;-72
2024/03/21 06:52:37;;;;;;;2.95;1.33;;;16.30;76.20;;;;;;5061442;28;20024;-72
2024/03/21 06:55:03;;;;;;;2.97;1.10;;;16.30;76.00;;;;;;5069934;28;20082;-72
2024/03/21 06:57:31;;;;;;;7.93;1.40;;;16.30;75.80;;;;;;5071108;28;20452;-72
2024/03/21 06:59:57;;;;;;;3.15;1.30;;;16.30;75.70;;;;;;5071465;28;20016;-72
2024/03/21 07:02:23;;;;;;;4.30;1.90;;;16.40;75.40;;;;;;5070726;28;20025;-72
2024/03/21 07:04:48;;;;;;;1.20;1.10;;;16.30;75.30;;;;;;5070766;28;20017;-72
2024/03/21 07:07:14;;;;;;;3.60;1.50;;;16.30;75.10;;;;;;5069159;28;20401;-72
2024/03/21 07:09:40;;;;;;;5.33;0.80;;;16.40;75.10;;;;;;5071015;28;20028;-72
2024/03/21 07:12:06;;;;;;;4.10;1.40;;;16.40;75.10;;;;;;5070439;28;20090;-72
2024/03/21 07:14:34;;;;;;;1.20;0.82;;;16.40;74.90;;;;;;5069575;28;20031;-72
2024/03/21 07:17:00;;;;;;;3.70;0.90;;;16.40;74.80;;;;;;5070383;28;20032;-72
2024/03/21 07:19:35;;;;;;;3.00;1.42;;;16.40;74.80;;;;;;5069011;28;20419;-72
2024/03/21 07:22:04;;;;;;;2.30;1.00;;;16.40;74.90;;;;;;5070355;28;20029;-72
2024/03/21 07:24:30;;;;;;;2.17;0.90;;;16.40;74.80;;;;;;5071141;28;20450;-71
2024/03/21 07:26:57;;;;;;;4.95;1.05;;;16.40;74.70;;;;;;5069728;28;20077;-72
2024/03/21 07:29:22;;;;;;;;;;;16.40;74.80;;;;;;5070666;28;20558;-72
2024/03/21 07:31:48;;;;;;;3.10;1.13;;;16.40;74.70;;;;;;5070725;28;19908;-72
2024/03/21 07:34:14;;;;;;;5.53;0.90;;;16.40;74.80;;;;;;5070885;28;20454;-72
2024/03/21 07:36:41;;;;;;;1.73;1.00;;;16.40;74.80;;;;;;5068364;28;20020;-72
2024/03/21 07:39:07;;;;;;;;;;;16.40;74.80;;;;;;5071144;28;20542;-72
2024/03/21 07:41:32;;;;;;;1.02;0.75;;;16.40;74.90;;;;;;5070616;28;19909;-72
2024/03/21 07:44:04;;;;;;;1.80;0.80;;;16.40;74.90;;;;;;5070495;28;20024;-72
2024/03/21 07:46:30;;;;;;;3.22;0.95;;;16.40;74.90;;;;;;5070415;28;20076;-72
2024/03/21 07:48:58;;;;;;;2.80;0.80;;;16.40;74.90;;;;;;5069194;28;20170;-72
2024/03/21 07:51:24;;;;;;;1.27;0.77;;;16.40;74.90;;;;;;5069596;28;20532;-72
2024/03/21 07:53:50;;;;;;;3.20;1.00;;;16.40;74.80;;;;;;5069576;28;20028;-72
2024/03/21 07:56:16;;;;;;;2.35;0.90;;;16.40;74.70;;;;;;5070142;28;20525;-72
2024/03/21 07:58:42;;;;;;;2.80;0.83;;;16.40;74.70;;;;;;5070180;28;20055;-72
2024/03/21 08:01:07;;;;;;;26.70;11.77;;;16.50;74.40;;;;;;5069979;28;20060;-73
2024/03/21 08:03:33;;;;;;;253.67;125.83;;;16.50;74.30;;;;;;5070388;28;20025;-73
2024/03/21 08:05:59;;;;;;;53.87;26.80;;;16.50;74.30;;;;;;5068056;28;20094;-73
2024/03/21 08:08:24;;;;;;;47.27;23.00;;;16.60;74.30;;;;;;5070014;28;20043;-73
2024/03/21 08:10:51;;;;;;;109.40;80.53;;;16.60;74.20;;;;;;5070516;28;20070;-74
2024/03/21 08:13:16;;;;;;;117.85;85.97;;;16.70;74.20;;;;;;5069863;28;20033;-73
2024/03/21 08:15:42;;;;;;;96.23;74.07;;;16.70;74.30;;;;;;5067758;28;20086;-73
2024/03/21 08:18:08;;;;;;;70.73;48.50;;;16.70;74.20;;;;;;5070020;28;20047;-72
2024/03/21 08:20:33;;;;;;;51.23;36.77;;;16.70;74.10;;;;;;5068906;28;20493;-73
2024/03/21 08:22:59;;;;;;;44.40;30.73;;;16.80;74.10;;;;;;5085624;28;20527;-72
2024/03/21 08:25:25;;;;;;;44.70;28.00;;;16.80;74.20;;;;;;5070039;28;20020;-73
2024/03/21 08:27:51;;;;;;;41.10;26.93;;;16.90;74.10;;;;;;5068150;28;20043;-73
2024/03/21 08:30:17;;;;;;;34.90;25.50;;;16.90;73.90;;;;;;5068214;28;20093;-72
2024/03/21 08:32:42;;;;;;;49.43;29.67;;;16.90;73.80;;;;;;5069788;28;20813;-73
2024/03/21 08:35:08;;;;;;;38.77;23.50;;;16.90;73.90;;;;;;5070177;28;20640;-73
2024/03/21 08:37:34;;;;;;;31.97;21.23;;;16.90;73.90;;;;;;5070027;28;20042;-73
2024/03/21 08:40:00;;;;;;;31.20;19.37;;;16.90;73.90;;;;;;5070025;28;20024;-73
2024/03/21 08:42:26;;;;;;;;;;;16.90;73.40;;;;;;5068258;28;20037;-73
2024/03/21 08:44:58;;;;;;;28.75;16.17;;;16.90;73.50;;;;;;5069951;28;19969;-73
2024/03/21 08:47:24;;;;;;;26.23;15.50;;;16.90;73.20;;;;;;5070068;28;20048;-73
2024/03/21 08:49:49;;;;;;;20.27;13.50;;;16.90;73.20;;;;;;5085476;28;20054;-73
2024/03/21 08:52:15;;;;;;;22.20;12.70;;;16.90;73.00;;;;;;5069246;28;20492;-72
2024/03/21 08:54:41;;;;;;;22.20;12.43;;;16.90;73.10;;;;;;5069789;28;20020;-72
2024/03/21 08:57:07;;;;;;;20.13;12.47;;;17.00;73.00;;;;;;5069696;28;20043;-72
2024/03/21 08:59:32;;;;;;;19.03;11.50;;;17.00;72.80;;;;;;5069522;28;20043;-72
2024/03/21 09:02:00;;;;;;;18.20;9.90;;;17.00;72.80;;;;;;5069375;28;20500;-72
2024/03/21 09:04:25;;;;;;;15.82;9.93;;;17.00;72.70;;;;;;5068352;28;20462;-72
2024/03/21 09:06:51;;;;;;;12.27;8.87;;;17.10;72.50;;;;;;5068565;28;20047;-72
2024/03/21 09:09:17;;;;;;;13.70;9.47;;;17.10;72.40;;;;;;5068685;28;20440;-72
2024/03/21 09:11:43;;;;;;;13.30;7.37;;;17.20;72.10;;;;;;5068557;28;20039;-72
2024/03/21 09:14:09;;;;;;;14.63;8.18;;;17.20;72.10;;;;;;5069438;28;20454;-72
2024/03/21 09:16:35;;;;;;;10.67;6.90;;;17.20;72.10;;;;;;5069461;28;20031;-71
2024/03/21 09:19:00;;;;;;;11.55;6.60;;;17.20;72.20;;;;;;5067974;28;20033;-71
2024/03/21 09:21:28;;;;;;;11.50;6.33;;;17.20;72.10;;;;;;5068654;28;20036;-72
2024/03/21 09:23:54;;;;;;;9.60;5.50;;;17.30;72.00;;;;;;5067887;28;20119;-72
2024/03/21 09:26:19;;;;;;;10.37;6.10;;;17.30;71.90;;;;;;5085218;28;20163;-72
2024/03/21 09:28:45;;;;;;;12.27;5.43;;;17.30;71.70;;;;;;5073099;28;20063;-73
2024/03/21 09:31:11;;;;;;;6.93;5.03;;;17.30;71.80;;;;;;5072020;28;20408;-72
2024/03/21 09:33:37;;;;;;;8.23;5.43;;;17.40;71.90;;;;;;5072371;28;20025;-72
2024/03/21 09:36:05;;;;;;;10.70;5.43;;;17.40;71.80;;;;;;5071210;28;20466;-73
2024/03/21 09:38:31;;;;;;;10.93;4.63;;;17.40;71.90;;;;;;5069032;28;20028;-73
2024/03/21 09:40:58;;;;;;;6.87;4.07;;;17.50;72.20;;;;;;5072748;28;20028;-73
2024/03/21 09:43:24;;;;;;;9.85;4.65;;;17.50;72.20;;;;;;5072689;28;20025;-75
2024/03/21 09:45:54;;;;;;;8.83;4.13;;;17.50;72.50;;;;;;5072539;28;20030;-74
2024/03/21 09:48:20;;;;;;;8.95;3.63;;;17.50;72.60;;;;;;5072497;28;20480;-72
2024/03/21 09:50:47;;;;;;;5.88;4.07;;;17.60;72.60;;;;;;5072159;28;20115;-74
2024/03/21 09:53:16;;;;;;;7.68;3.03;;;17.60;72.50;;;;;;5072243;28;20087;-72
2024/03/21 09:55:43;;;;;;;9.02;3.45;;;17.70;72.70;;;;;;5072222;28;20040;-74
2024/03/21 09:58:13;;;;;;;9.25;3.58;;;17.70;72.70;;;;;;5072213;28;20032;-73
2024/03/21 10:00:39;;;;;;;12.65;3.05;;;17.70;72.30;;;;;;5065669;28;20166;-72
2024/03/21 10:03:05;;;;;;;4.32;3.05;;;17.80;72.00;;;;;;5067460;28;20492;-72
2024/03/21 10:05:32;;;;;;;54.03;23.27;;;17.80;72.10;;;;;;5070171;28;20086;-72
2024/03/21 10:07:57;;;;;;;377.40;212.80;;;17.90;71.70;;;;;;5069709;28;20028;-71
2024/03/21 10:10:25;;;;;;;78.57;41.77;;;17.90;71.90;;;;;;5071484;28;20795;-70
2024/03/21 10:12:51;;;;;;;64.07;32.38;;;17.80;71.70;;;;;;5071120;28;20016;-71
2024/03/21 10:15:18;;;;;;;70.30;34.97;;;17.80;71.90;;;;;;5071888;28;20020;-70
2024/03/21 10:17:43;;;;;;;59.50;29.45;;;17.80;71.80;;;;;;5071291;28;20032;-70
2024/03/21 10:20:10;;;;;;;51.70;27.23;;;17.80;71.60;;;;;;5071491;28;20028;-70
2024/03/21 10:22:35;;;;;;;51.25;26.55;;;17.80;71.50;;;;;;5070833;28;20346;-70
2024/03/21 10:25:06;;;;;;;43.27;24.63;;;17.80;71.30;;;;;;5070584;28;20078;-71
2024/03/21 10:27:31;;;;;;;45.25;22.90;;;17.80;71.40;;;;;;5069858;28;20022;-71
2024/03/21 10:29:58;;;;;;;42.57;20.03;;;17.80;71.30;;;;;;5072212;28;20024;-71
2024/03/21 10:32:24;;;;;;;33.80;18.73;;;17.90;71.10;;;;;;5071692;28;20043;-71
2024/03/21 10:34:54;;;;;;;818.92;538.75;;;17.80;70.90;;;;;;5067622;28;20129;-72
2024/03/21 10:37:20;;;;;;;155.27;86.95;;;17.90;71.00;;;;;;5065876;28;20040;-71
2024/03/21 10:39:47;;;;;;;131.20;73.00;;;17.90;70.90;;;;;;5068917;28;20024;-72
2024/03/21 10:42:30;;;;;;;131.05;75.07;;;17.90;70.90;;;;;;5068380;28;20025;-72
2024/03/21 10:45:08;;;;;;;115.22;66.15;;;18.00;70.60;;;;;;5068283;28;20032;-71
2024/03/21 10:47:34;;;;;;;112.60;63.63;;;18.00;70.50;;;;;;5069482;28;20021;-72
2024/03/21 10:50:00;;;;;;;105.67;63.80;;;18.00;70.60;;;;;;5069474;28;20135;-71
2024/03/21 10:52:26;;;;;;;106.17;56.73;;;18.10;70.50;;;;;;5069215;28;20035;-71
2024/03/21 10:54:54;;;;;;;102.22;54.72;;;18.10;70.20;;;;;;5070649;28;20035;-71
2024/03/21 10:57:27;;;;;;;90.50;51.33;;;18.20;70.10;;;;;;5071343;28;20043;-72
2024/03/21 11:00:12;;;;;;;86.53;49.72;;;18.20;70.10;;;;;;5070174;28;20545;-72
2024/03/21 11:02:38;;;;;;;80.15;45.78;;;18.20;70.20;;;;;;5070857;28;20020;-71
2024/03/21 11:05:15;;;;;;;77.35;45.25;;;18.20;70.20;;;;;;5069974;28;20442;-71
2024/03/21 11:07:42;;;;;;;;;;;18.20;70.50;;;;;;5071817;28;20466;-71
2024/03/21 11:10:08;;;;;;;279.58;141.48;;;18.20;70.40;;;;;;5069853;28;19932;-71
2024/03/21 11:12:34;;;;;;;211.18;109.40;;;18.20;70.70;;;;;;5070735;28;20066;-72
2024/03/21 11:15:00;;;;;;;238.23;122.75;;;18.20;70.70;;;;;;5070469;28;20044;-72
2024/03/21 11:17:26;;;;;;;214.85;111.00;;;18.20;70.80;;;;;;5070814;28;20448;-73
2024/03/21 11:19:52;;;;;;;208.47;105.67;;;18.20;70.70;;;;;;5069624;28;20028;-72
2024/03/21 11:22:18;;;;;;;200.83;103.83;;;18.20;70.70;;;;;;5066843;28;20269;-73
2024/03/21 11:24:44;;;;;;;197.83;100.67;;;18.30;71.00;;;;;;5066191;28;20020;-73
2024/03/21 11:27:18;;;;;;;198.98;99.60;;;18.30;71.00;;;;;;5065293;28;20257;-73
2024/03/21 11:29:44;;;;;;;187.20;96.72;;;18.30;71.30;;;;;;5065527;28;20127;-73
2024/03/21 11:32:19;;;;;;;;;;;18.30;71.40;;;;;;5068379;28;20028;-73
2024/03/21 11:34:46;;;;;;;158.35;80.88;;;18.30;71.40;;;;;;5096559;28;19912;-73
2024/03/21 11:37:14;;;;;;;145.68;76.68;;;18.20;71.60;;;;;;5066419;28;20531;-72
2024/03/21 11:39:40;;;;;;;151.27;77.07;;;18.20;71.60;;;;;;5066377;28;20071;-73
2024/03/21 11:42:17;;;;;;;146.15;74.72;;;18.20;72.00;;;;;;5068834;28;20056;-74
2024/03/21 11:44:44;;;;;;;142.73;73.88;;;18.20;71.90;;;;;;5069402;28;20025;-74
2024/03/21 11:47:18;;;;;;;132.77;70.25;;;18.30;71.90;;;;;;5068222;28;20028;-74
2024/03/21 11:49:51;;;;;;;131.95;68.47;;;18.20;72.00;;;;;;5067455;28;20025;-74
2024/03/21 11:52:18;;;;;;;141.40;73.03;;;18.20;72.20;;;;;;5070160;28;20098;-73
2024/03/21 11:54:45;;;;;;;125.28;65.07;;;18.20;72.30;;;;;;5069121;28;20107;-74
2024/03/21 11:57:13;;;;;;;128.60;65.82;;;18.20;72.30;;;;;;5069967;28;20086;-72
2024/03/21 11:59:41;;;;;;;135.30;66.18;;;18.20;72.20;;;;;;5069821;28;20020;-74
2024/03/21 12:02:17;;;;;;;130.00;62.65;;;18.20;72.30;;;;;;5070250;28;20409;-73
2024/03/21 12:04:44;;;;;;;112.85;59.30;;;18.20;72.30;;;;;;5068280;28;20020;-74
2024/03/21 12:07:16;;;;;;;118.55;57.88;;;18.20;72.10;;;;;;5068720;28;20389;-74
2024/03/21 12:09:42;;;;;;;110.90;57.20;;;18.30;72.10;;;;;;5068614;28;20566;-75
2024/03/21 12:12:14;;;;;;;110.80;56.03;;;18.30;72.10;;;;;;5070409;28;20044;-74
2024/03/21 12:14:43;;;;;;;105.53;56.40;;;18.20;72.20;;;;;;5070328;28;20115;-75
2024/03/21 12:17:10;;;;;;;106.38;53.90;;;18.30;72.20;;;;;;5069243;28;20120;-75
2024/03/21 12:19:37;;;;;;;101.35;54.00;;;18.30;72.20;;;;;;5068969;28;20028;-73
2024/03/21 12:22:03;;;;;;;100.18;52.75;;;18.30;72.30;;;;;;5068354;28;20032;-73
2024/03/21 12:24:28;;;;;;;96.67;50.67;;;18.30;72.20;;;;;;5068626;28;20533;-74
2024/03/21 12:26:54;;;;;;;97.47;48.87;;;18.30;72.10;;;;;;5068043;28;20323;-74
2024/03/21 12:29:20;;;;;;;96.77;48.40;;;18.30;72.20;;;;;;5069981;28;20037;-75
2024/03/21 12:31:45;;;;;;;90.10;48.17;;;18.20;72.20;;;;;;5070100;28;20025;-74
2024/03/21 12:34:11;;;;;;;90.70;44.97;;;18.20;72.20;;;;;;5070384;28;20025;-74
2024/03/21 12:36:37;;;;;;;92.70;47.00;;;18.20;72.20;;;;;;5068464;28;20095;-73
2024/03/21 12:39:03;;;;;;;92.27;46.30;;;18.30;72.30;;;;;;5068599;28;20025;-75
2024/03/21 12:41:29;;;;;;;89.50;43.33;;;18.20;72.30;;;;;;5069195;28;20025;-71
2024/03/21 12:43:56;;;;;;;79.80;41.95;;;18.20;72.20;;;;;;5068209;28;20017;-72
2024/03/21 12:46:22;;;;;;;77.97;41.00;;;18.20;72.20;;;;;;5069646;28;20029;-73